DEFFG EDLW-

Flight info

Callsign DEFFG
Flight time N/A
Altitude
Route
Aircraft DA40

Departure

Time 2026-05-01 15:31
Airport Dortmund Airport (EDLW)

Arrival

Time N/A
Airport -
Time Latitude Longitude Altitude Speed Heading
2026-05-01 15:23 51.51156 7.60312 424 ft 0 kts 195°
2026-05-01 15:23 51.51149 7.60306 418 ft 5 kts 230°
2026-05-01 15:24 51.51164 7.60238 424 ft 12 kts 238°
2026-05-01 15:24 51.51199 7.60177 419 ft 15 kts 52°
2026-05-01 15:24 51.51261 7.60347 424 ft 20 kts 60°
2026-05-01 15:24 51.51334 7.60555 419 ft 22 kts 60°
2026-05-01 15:25 51.51407 7.60766 417 ft 19 kts 61°
2026-05-01 15:25 51.51467 7.60933 417 ft 17 kts 60°
2026-05-01 15:25 51.51532 7.61057 417 ft 13 kts
2026-05-01 15:25 51.51568 7.60949 413 ft 14 kts 253°
2026-05-01 15:26 51.51541 7.60797 415 ft 14 kts 256°
2026-05-01 15:26 51.51526 7.60699 417 ft 0 kts 268°
2026-05-01 15:29 51.51526 7.60698 417 ft 1 kts 268°
2026-05-01 15:29 51.51560 7.60613 416 ft 14 kts 334°
2026-05-01 15:29 51.51617 7.60608 420 ft 0 kts 61°
2026-05-01 15:30 51.51621 7.60622 420 ft 9 kts 62°
2026-05-01 15:31 51.52432 7.62866 840 ft 69 kts 69°
2026-05-01 15:31 51.53382 7.63324 1054 ft 103 kts 329°
2026-05-01 15:32 51.54013 7.61434 1211 ft 103 kts 246°
2026-05-01 15:32 51.53182 7.59734 1314 ft 103 kts 220°
2026-05-01 15:33 51.51917 7.57135 1312 ft 88 kts 221°
2026-05-01 15:34 51.50874 7.54754 1317 ft 86 kts 224°